createdAt,value
2023-03-30T00:00:46.150Z,28.67
2023-03-30T00:03:22.987Z,26.60
2023-03-30T00:05:51.767Z,29.43
2023-03-30T00:08:19.105Z,26.87
2023-03-30T00:10:46.221Z,24.33
2023-03-30T00:13:14.221Z,27.60
2023-03-30T00:15:41.296Z,31.13
2023-03-30T00:18:09.309Z,26.17
2023-03-30T00:20:37.572Z,23.47
2023-03-30T00:23:04.929Z,26.80
2023-03-30T00:25:31.666Z,27.40
2023-03-30T00:27:58.736Z,25.13
2023-03-30T00:30:25.946Z,24.80
2023-03-30T00:32:53.918Z,27.70
2023-03-30T00:35:21.101Z,29.60
2023-03-30T00:37:49.520Z,26.27
2023-03-30T00:40:20.495Z,26.13
2023-03-30T00:42:48.950Z,31.03
2023-03-30T00:45:20.754Z,30.77
2023-03-30T00:47:53.355Z,24.10
2023-03-30T00:50:23.872Z,23.70
2023-03-30T00:52:54.578Z,26.20
2023-03-30T00:55:24.012Z,23.87
2023-03-30T00:57:52.529Z,29.00
2023-03-30T01:00:19.982Z,24.40
2023-03-30T01:02:55.940Z,22.47
2023-03-30T01:05:24.323Z,30.97
2023-03-30T01:07:52.168Z,29.77
2023-03-30T01:10:19.684Z,24.53
2023-03-30T01:12:47.538Z,29.20
2023-03-30T01:15:16.120Z,23.77
2023-03-30T01:18:03.357Z,25.97
2023-03-30T01:20:57.839Z,26.00
2023-03-30T01:23:48.944Z,20.97
2023-03-30T01:26:33.764Z,28.13
2023-03-30T01:29:12.232Z,30.60
2023-03-30T01:32:02.086Z,27.77
2023-03-30T01:34:38.505Z,25.13
2023-03-30T01:37:36.817Z,23.37
2023-03-30T01:40:10.529Z,27.50
2023-03-30T01:42:49.142Z,30.47
2023-03-30T01:45:47.217Z,30.03
2023-03-30T01:48:36.601Z,31.67
2023-03-30T01:51:08.783Z,30.50
2023-03-30T01:54:07.649Z,29.20
2023-03-30T01:56:46.058Z,28.20
2023-03-30T01:59:38.156Z,27.43
2023-03-30T02:02:09.442Z,26.97
2023-03-30T02:04:40.680Z,27.87
2023-03-30T02:07:18.460Z,27.67
2023-03-30T02:09:49.345Z,27.73
2023-03-30T02:12:17.618Z,29.63
2023-03-30T02:14:46.997Z,30.83
2023-03-30T02:17:18.250Z,29.43
2023-03-30T02:19:46.408Z,28.63
2023-03-30T02:22:15.875Z,28.50
2023-03-30T02:24:44.983Z,29.23
2023-03-30T02:27:12.152Z,31.73
2023-03-30T02:29:43.046Z,35.50
2023-03-30T02:32:37.999Z,33.60
2023-03-30T02:35:22.270Z,31.60
2023-03-30T02:38:28.401Z,30.70
2023-03-30T02:41:43.304Z,29.03
2023-03-30T02:44:33.073Z,31.30
2023-03-30T02:47:20.280Z,36.60
2023-03-30T02:50:00.031Z,32.70
2023-03-30T02:52:39.355Z,33.23
2023-03-30T02:55:10.871Z,35.10
2023-03-30T02:58:03.123Z,31.30
2023-03-30T03:01:03.488Z,32.67
2023-03-30T03:03:47.153Z,26.80
2023-03-30T03:06:15.453Z,28.77
2023-03-30T03:08:48.129Z,30.40
2023-03-30T03:11:21.524Z,29.57
2023-03-30T03:13:49.804Z,32.40
2023-03-30T03:16:17.472Z,30.90
2023-03-30T03:19:08.205Z,36.20
2023-03-30T03:21:36.177Z,32.33
2023-03-30T03:24:04.294Z,27.83
2023-03-30T03:26:53.771Z,30.93
2023-03-30T03:29:23.107Z,26.63
2023-03-30T03:31:49.947Z,30.93
2023-03-30T03:34:18.906Z,30.07
2023-03-30T03:36:55.135Z,29.70
2023-03-30T03:39:25.886Z,32.40
2023-03-30T03:41:58.603Z,35.30
2023-03-30T03:44:25.912Z,27.57
2023-03-30T03:46:53.234Z,33.87
2023-03-30T03:49:20.319Z,32.73
2023-03-30T03:51:47.026Z,30.13
2023-03-30T03:54:14.126Z,36.47
2023-03-30T03:56:43.692Z,34.30
2023-03-30T03:59:10.685Z,34.87
2023-03-30T04:01:37.583Z,28.57
2023-03-30T04:04:04.682Z,31.23
2023-03-30T04:06:31.402Z,36.27
2023-03-30T04:08:58.451Z,29.77
2023-03-30T04:11:45.188Z,30.60
2023-03-30T04:14:26.088Z,30.13
2023-03-30T04:17:19.040Z,31.80
2023-03-30T04:20:09.222Z,29.63
2023-03-30T04:23:01.709Z,31.20
2023-03-30T04:25:51.990Z,36.13
2023-03-30T04:28:46.815Z,28.97
2023-03-30T04:31:34.806Z,31.03
2023-03-30T04:34:09.418Z,30.47
2023-03-30T04:36:54.824Z,34.43
2023-03-30T04:39:46.375Z,30.80
2023-03-30T04:42:34.306Z,33.30
2023-03-30T04:45:23.709Z,34.07
2023-03-30T04:47:50.807Z,29.43
2023-03-30T04:50:35.679Z,28.93
2023-03-30T04:53:09.024Z,29.50
2023-03-30T04:56:05.153Z,27.97
2023-03-30T04:58:44.462Z,30.93
2023-03-30T05:01:25.558Z,31.80
2023-03-30T05:04:07.375Z,34.83
2023-03-30T05:06:52.943Z,32.07
2023-03-30T05:09:44.394Z,33.93
2023-03-30T05:12:43.231Z,37.13
2023-03-30T05:15:21.736Z,32.97
2023-03-30T05:18:07.592Z,35.73
2023-03-30T05:20:56.876Z,28.50
2023-03-30T05:23:46.218Z,35.67
2023-03-30T05:26:47.304Z,33.17
2023-03-30T05:29:32.818Z,32.67
2023-03-30T05:32:18.431Z,32.03
2023-03-30T05:35:06.024Z,32.70
2023-03-30T05:37:51.718Z,33.63
2023-03-30T05:40:27.527Z,35.07
2023-03-30T05:43:15.586Z,29.77
2023-03-30T05:46:08.335Z,39.03
2023-03-30T05:48:55.526Z,34.50
2023-03-30T05:51:39.382Z,33.27
2023-03-30T05:54:16.345Z,34.30
2023-03-30T05:56:58.238Z,38.73
2023-03-30T05:59:31.113Z,38.33
2023-03-30T06:02:12.995Z,34.90
2023-03-30T06:04:40.714Z,30.50
2023-03-30T06:07:08.046Z,44.03
2023-03-30T06:09:35.859Z,33.50
2023-03-30T06:12:09.788Z,35.33
2023-03-30T06:14:38.040Z,33.37
2023-03-30T06:17:25.520Z,37.00
2023-03-30T06:19:52.816Z,33.97
2023-03-30T06:22:19.902Z,34.77
2023-03-30T06:25:00.929Z,35.27
2023-03-30T06:27:27.713Z,31.77
2023-03-30T06:29:55.062Z,35.60
2023-03-30T06:32:22.374Z,38.70
2023-03-30T06:34:49.395Z,33.80
2023-03-30T06:37:17.983Z,31.80
2023-03-30T06:39:45.871Z,31.57
2023-03-30T06:42:12.858Z,37.70
2023-03-30T06:45:00.027Z,32.90
2023-03-30T06:47:27.177Z,35.20
2023-03-30T06:49:55.449Z,29.23
2023-03-30T06:52:41.325Z,31.53
2023-03-30T06:55:09.482Z,37.63
2023-03-30T06:57:36.678Z,28.07
2023-03-30T07:00:13.342Z,34.00
2023-03-30T07:02:41.696Z,33.13
2023-03-30T07:05:16.545Z,33.83
2023-03-30T07:07:54.912Z,32.10
2023-03-30T07:10:22.212Z,28.80
2023-03-30T07:12:49.787Z,34.23
2023-03-30T07:15:17.151Z,35.73
2023-03-30T07:17:45.076Z,37.77
2023-03-30T07:20:15.300Z,31.00
2023-03-30T07:23:02.129Z,32.00
2023-03-30T07:25:30.590Z,34.70
2023-03-30T07:28:00.129Z,33.87
2023-03-30T07:30:27.591Z,35.70
2023-03-30T07:33:01.059Z,41.77
2023-03-30T07:35:28.194Z,36.07
2023-03-30T07:38:02.782Z,32.30
2023-03-30T07:40:34.524Z,30.50
2023-03-30T07:43:02.529Z,32.73
2023-03-30T07:45:29.829Z,31.63
2023-03-30T07:47:57.012Z,30.80
2023-03-30T07:50:25.718Z,34.77
2023-03-30T07:52:55.077Z,27.73
2023-03-30T07:55:22.394Z,27.37
2023-03-30T07:57:56.099Z,32.07
2023-03-30T08:00:24.414Z,30.63
2023-03-30T08:03:26.610Z,29.67
2023-03-30T08:06:00.822Z,29.33
2023-03-30T08:08:34.617Z,30.80
2023-03-30T08:11:02.969Z,25.50
2023-03-30T08:13:29.971Z,28.40
2023-03-30T08:15:57.180Z,26.97
2023-03-30T08:18:24.092Z,26.97
2023-03-30T08:20:53.616Z,31.20
2023-03-30T08:23:21.543Z,25.27
2023-03-30T08:25:52.538Z,31.43
2023-03-30T08:28:22.635Z,35.30
2023-03-30T08:30:50.049Z,29.37
2023-03-30T08:33:17.363Z,34.40
2023-03-30T08:35:46.681Z,33.97
2023-03-30T08:38:17.561Z,34.03
2023-03-30T08:40:49.286Z,36.43
2023-03-30T08:43:28.008Z,35.60
2023-03-30T08:45:55.287Z,35.23
2023-03-30T08:48:25.976Z,35.77
2023-03-30T08:51:08.638Z,30.27
2023-03-30T08:53:35.833Z,35.17
2023-03-30T08:56:10.410Z,33.47
2023-03-30T08:58:52.678Z,32.20
2023-03-30T09:01:39.699Z,30.83
2023-03-30T09:04:47.953Z,28.27
2023-03-30T09:07:23.432Z,32.13
2023-03-30T09:09:55.091Z,28.50
2023-03-30T09:12:37.414Z,34.30
2023-03-30T09:15:29.059Z,28.33
2023-03-30T09:18:31.162Z,29.33
2023-03-30T09:21:06.074Z,28.60
2023-03-30T09:23:33.981Z,30.50
2023-03-30T09:26:34.569Z,30.50
2023-03-30T09:29:07.037Z,30.07
2023-03-30T09:31:45.039Z,29.98
2023-03-30T09:34:36.008Z,27.60
2023-03-30T09:37:06.499Z,27.38
2023-03-30T09:39:35.561Z,26.75
2023-03-30T09:42:13.615Z,23.40
2023-03-30T09:44:47.236Z,21.85
2023-03-30T09:47:25.962Z,22.73
2023-03-30T09:50:01.047Z,20.35
2023-03-30T09:52:32.220Z,22.77
2023-03-30T09:55:17.822Z,28.17
2023-03-30T09:57:44.873Z,30.05
2023-03-30T10:00:33.500Z,28.00
2023-03-30T10:03:02.803Z,22.97
2023-03-30T10:05:31.519Z,25.37
2023-03-30T10:08:00.900Z,26.35
2023-03-30T10:10:33.951Z,26.98
2023-03-30T10:13:14.442Z,26.60
2023-03-30T10:15:46.355Z,24.47
2023-03-30T10:18:23.812Z,24.00
2023-03-30T10:21:15.304Z,27.80
2023-03-30T10:23:45.567Z,25.57
2023-03-30T10:26:16.133Z,24.03
2023-03-30T10:29:05.134Z,26.43
2023-03-30T10:31:36.810Z,22.47
2023-03-30T10:34:07.613Z,26.60
2023-03-30T10:36:39.314Z,25.27
2023-03-30T10:39:17.241Z,24.88
2023-03-30T10:41:46.532Z,21.70
2023-03-30T10:44:25.221Z,26.48
2023-03-30T10:47:00.838Z,23.33
2023-03-30T10:49:40.092Z,26.45
2023-03-30T10:52:20.425Z,22.23
2023-03-30T10:54:55.573Z,24.23
2023-03-30T10:57:33.612Z,19.67
2023-03-30T11:00:31.363Z,27.58
2023-03-30T11:03:08.462Z,18.70
2023-03-30T11:05:40.312Z,20.05
2023-03-30T11:08:12.512Z,23.05
2023-03-30T11:11:00.382Z,25.17
2023-03-30T11:13:35.541Z,24.13
2023-03-30T11:16:05.642Z,20.13
2023-03-30T11:18:32.626Z,24.50
2023-03-30T11:21:04.442Z,19.00
2023-03-30T11:23:52.440Z,21.67
2023-03-30T11:26:38.093Z,19.30
2023-03-30T11:29:40.737Z,22.63
2023-03-30T11:32:59.873Z,22.88
2023-03-30T11:35:31.222Z,21.25
2023-03-30T11:38:23.400Z,23.15
2023-03-30T11:41:17.771Z,27.05
2023-03-30T11:43:44.832Z,21.33
2023-03-30T11:46:20.348Z,22.92
2023-03-30T11:48:56.240Z,19.90
2023-03-30T11:51:40.523Z,24.95
2023-03-30T11:54:31.796Z,20.55
2023-03-30T11:56:58.615Z,23.65
2023-03-30T11:59:33.197Z,21.05
2023-03-30T12:02:29.595Z,25.67
2023-03-30T12:05:04.222Z,21.53
2023-03-30T12:07:42.956Z,18.33
2023-03-30T12:10:20.613Z,24.00
2023-03-30T12:12:49.708Z,27.93
2023-03-30T12:15:28.979Z,19.30
2023-03-30T12:18:01.100Z,25.27
2023-03-30T12:20:32.144Z,22.90
2023-03-30T12:23:15.192Z,24.17
2023-03-30T12:26:08.381Z,24.07
2023-03-30T12:28:54.894Z,22.63
2023-03-30T12:31:48.499Z,23.30
2023-03-30T12:34:15.665Z,24.50
2023-03-30T12:36:49.080Z,22.53
2023-03-30T12:39:31.244Z,25.93
2023-03-30T12:42:34.479Z,20.10
2023-03-30T12:45:22.907Z,18.38
2023-03-30T12:48:16.325Z,21.50
2023-03-30T12:51:14.437Z,24.05
2023-03-30T12:54:19.082Z,17.65
2023-03-30T12:57:07.436Z,21.73
2023-03-30T12:59:52.791Z,20.10
2023-03-30T13:02:35.855Z,17.50
2023-03-30T13:05:05.445Z,18.50
2023-03-30T13:07:36.316Z,18.33
2023-03-30T13:10:31.806Z,18.77
2023-03-30T13:13:01.614Z,22.10
2023-03-30T13:15:51.048Z,21.60
2023-03-30T13:18:17.798Z,19.48
2023-03-30T13:20:47.562Z,21.13
2023-03-30T13:23:14.443Z,22.67
2023-03-30T13:25:45.262Z,22.65
2023-03-30T13:28:36.465Z,19.10
2023-03-30T13:31:28.530Z,22.70
2023-03-30T13:34:08.265Z,19.63
2023-03-30T13:36:42.870Z,23.63
2023-03-30T13:39:22.766Z,21.08
2023-03-30T13:42:23.824Z,21.77
2023-03-30T13:45:09.356Z,18.90
2023-03-30T13:47:57.769Z,18.57
2023-03-30T13:50:28.695Z,23.33
2023-03-30T13:52:59.442Z,22.77
2023-03-30T13:55:33.778Z,25.80
2023-03-30T13:58:32.914Z,30.50
2023-03-30T14:01:10.612Z,23.43
2023-03-30T14:03:49.111Z,26.20
2023-03-30T14:06:18.904Z,28.10
2023-03-30T14:08:48.622Z,27.13
2023-03-30T14:11:22.294Z,28.53
2023-03-30T14:13:52.879Z,22.35
2023-03-30T14:16:23.507Z,25.20
2023-03-30T14:18:50.930Z,28.17
2023-03-30T14:21:21.886Z,25.27
2023-03-30T14:23:52.581Z,27.50
2023-03-30T14:26:27.524Z,23.23
2023-03-30T14:29:11.257Z,23.93
2023-03-30T14:31:42.484Z,25.63
2023-03-30T14:34:27.321Z,25.70
2023-03-30T14:37:14.368Z,26.87
2023-03-30T14:39:44.478Z,25.80
2023-03-30T14:42:20.695Z,23.23
2023-03-30T14:44:51.523Z,24.10
2023-03-30T14:47:22.743Z,25.43
2023-03-30T14:49:53.312Z,25.77
2023-03-30T14:52:23.518Z,27.93
2023-03-30T14:55:05.659Z,26.98
2023-03-30T14:57:40.364Z,27.77
2023-03-30T15:00:24.631Z,29.30
2023-03-30T15:03:00.586Z,23.67
2023-03-30T15:05:37.911Z,24.73
2023-03-30T15:08:04.757Z,23.88
2023-03-30T15:10:45.419Z,25.80
2023-03-30T15:13:23.195Z,20.27
2023-03-30T15:15:53.116Z,21.38
2023-03-30T15:18:24.158Z,25.88
2023-03-30T15:20:51.762Z,24.10
2023-03-30T15:23:19.289Z,26.45
2023-03-30T15:25:47.180Z,24.17
2023-03-30T15:28:19.228Z,21.05
2023-03-30T15:30:51.598Z,23.67
2023-03-30T15:33:36.213Z,25.58
2023-03-30T15:36:11.475Z,29.98
2023-03-30T15:38:48.545Z,22.80
2023-03-30T15:41:17.968Z,23.83
2023-03-30T15:43:56.961Z,23.85
2023-03-30T15:46:25.175Z,26.88
2023-03-30T15:48:53.845Z,25.27
2023-03-30T15:51:41.259Z,28.02
2023-03-30T15:54:20.859Z,25.60
2023-03-30T15:56:51.939Z,22.40
2023-03-30T15:59:21.288Z,24.38
2023-03-30T16:01:56.252Z,25.52
2023-03-30T16:04:24.698Z,29.38
2023-03-30T16:06:52.805Z,27.23
2023-03-30T16:09:19.641Z,23.00
2023-03-30T16:11:46.983Z,24.77
2023-03-30T16:14:18.255Z,27.60
2023-03-30T16:16:46.359Z,27.50
2023-03-30T16:19:16.223Z,33.83
2023-03-30T16:21:45.288Z,30.20
2023-03-30T16:24:12.413Z,25.55
2023-03-30T16:26:39.767Z,26.40
2023-03-30T16:29:19.958Z,25.88
2023-03-30T16:31:48.681Z,28.00
2023-03-30T16:34:15.622Z,29.40
2023-03-30T16:36:42.862Z,26.67
2023-03-30T16:39:20.599Z,27.80
2023-03-30T16:41:49.514Z,26.02
2023-03-30T16:44:17.658Z,33.88
2023-03-30T16:46:45.764Z,35.67
2023-03-30T16:49:14.402Z,30.83
2023-03-30T16:51:41.494Z,38.65
2023-03-30T16:54:19.533Z,34.95
2023-03-30T16:56:54.695Z,30.60
2023-03-30T16:59:24.331Z,33.33
2023-03-30T17:01:52.299Z,31.77
2023-03-30T17:04:19.317Z,33.20
2023-03-30T17:06:46.790Z,30.67
2023-03-30T17:09:16.991Z,32.53
2023-03-30T17:11:45.217Z,33.92
2023-03-30T17:14:12.593Z,35.88
2023-03-30T17:16:40.105Z,36.28
2023-03-30T17:19:11.668Z,35.80
2023-03-30T17:21:40.145Z,36.58
2023-03-30T17:24:07.251Z,39.58
2023-03-30T17:26:34.354Z,37.97
2023-03-30T17:29:01.217Z,45.30
2023-03-30T17:31:28.354Z,51.57
2023-03-30T17:33:55.098Z,41.50
2023-03-30T17:36:24.502Z,39.87
2023-03-30T17:38:52.483Z,46.53
2023-03-30T17:41:20.353Z,42.87
2023-03-30T17:43:48.325Z,49.27
2023-03-30T17:46:20.669Z,45.17
2023-03-30T17:48:47.964Z,45.47
2023-03-30T17:51:14.968Z,42.93
2023-03-30T17:53:41.812Z,47.53
2023-03-30T17:56:12.578Z,48.87
2023-03-30T17:58:39.332Z,50.20
2023-03-30T18:01:09.196Z,50.43
2023-03-30T18:03:39.112Z,55.37
2023-03-30T18:06:07.045Z,51.53
2023-03-30T18:08:34.081Z,53.33
2023-03-30T18:11:01.635Z,51.15
2023-03-30T18:13:29.682Z,52.27
2023-03-30T18:15:59.204Z,49.53
2023-03-30T18:18:28.541Z,56.53
2023-03-30T18:20:55.644Z,57.73
2023-03-30T18:23:23.092Z,55.93
2023-03-30T18:25:51.128Z,53.27
2023-03-30T18:28:20.969Z,59.78
2023-03-30T18:30:48.531Z,55.57
2023-03-30T18:33:18.521Z,49.70
2023-03-30T18:35:48.013Z,54.03
2023-03-30T18:38:18.704Z,55.93
2023-03-30T18:40:49.437Z,58.20
2023-03-30T18:43:16.891Z,66.07
2023-03-30T18:45:49.327Z,61.47
2023-03-30T18:48:21.555Z,55.97
2023-03-30T18:50:50.970Z,64.77
2023-03-30T18:53:23.144Z,59.87
2023-03-30T18:55:52.139Z,58.57
2023-03-30T18:58:25.481Z,65.10
2023-03-30T19:00:53.471Z,66.93
2023-03-30T19:03:22.187Z,66.10
2023-03-30T19:05:50.943Z,66.23
2023-03-30T19:08:20.243Z,68.73
2023-03-30T19:10:49.812Z,66.33
2023-03-30T19:13:18.947Z,67.53
2023-03-30T19:15:47.267Z,63.23
2023-03-30T19:18:15.050Z,59.37
2023-03-30T19:20:42.317Z,61.87
2023-03-30T19:23:14.061Z,60.87
2023-03-30T19:25:41.893Z,60.53
2023-03-30T19:28:09.742Z,65.27
2023-03-30T19:30:39.321Z,57.67
2023-03-30T19:33:11.110Z,49.37
2023-03-30T19:35:40.901Z,43.17
2023-03-30T19:38:07.723Z,40.40
2023-03-30T19:40:37.511Z,40.23
2023-03-30T19:43:04.526Z,33.30
2023-03-30T19:45:31.849Z,33.45
2023-03-30T19:47:58.863Z,34.92
2023-03-30T19:50:26.882Z,29.67
2023-03-30T19:52:55.239Z,26.87
2023-03-30T19:55:22.546Z,25.87
2023-03-30T19:57:49.405Z,26.13
2023-03-30T20:00:18.262Z,21.47
2023-03-30T20:02:48.353Z,20.23
2023-03-30T20:05:16.752Z,18.13
2023-03-30T20:07:45.388Z,14.40
2023-03-30T20:10:19.171Z,16.50
2023-03-30T20:12:47.000Z,17.33
2023-03-30T20:15:14.418Z,17.63
2023-03-30T20:17:41.991Z,15.50
2023-03-30T20:20:12.697Z,15.73
2023-03-30T20:22:42.357Z,14.97
2023-03-30T20:25:12.444Z,13.00
2023-03-30T20:27:47.212Z,14.77
2023-03-30T20:30:16.689Z,13.57
2023-03-30T20:32:45.195Z,15.93
2023-03-30T20:35:17.133Z,12.40
2023-03-30T20:37:43.923Z,10.73
2023-03-30T20:40:12.051Z,10.40
2023-03-30T20:42:44.405Z,12.33
2023-03-30T20:45:13.779Z,12.40
2023-03-30T20:47:40.662Z,9.03
2023-03-30T20:50:08.156Z,8.98
2023-03-30T20:52:35.040Z,9.13
2023-03-30T20:55:02.130Z,12.00
2023-03-30T20:57:28.866Z,9.75
2023-03-30T20:59:56.202Z,7.50
2023-03-30T21:02:22.956Z,9.57
2023-03-30T21:04:50.423Z,9.37
2023-03-30T21:07:17.991Z,9.47
2023-03-30T21:09:45.673Z,10.60
2023-03-30T21:12:12.450Z,9.93
2023-03-30T21:14:39.684Z,10.90
2023-03-30T21:17:06.827Z,7.97
2023-03-30T21:19:34.218Z,10.20
2023-03-30T21:22:01.171Z,10.37
2023-03-30T21:24:28.843Z,10.70
2023-03-30T21:26:56.246Z,9.30
2023-03-30T21:29:23.643Z,6.47
2023-03-30T21:31:50.830Z,9.57
2023-03-30T21:34:18.851Z,6.03
2023-03-30T21:36:46.238Z,9.17
2023-03-30T21:39:13.583Z,9.87
2023-03-30T21:41:40.401Z,7.57
2023-03-30T21:44:08.042Z,16.50
2023-03-30T21:46:34.963Z,6.83
2023-03-30T21:49:02.160Z,8.83
2023-03-30T21:51:31.487Z,10.23
2023-03-30T21:53:59.460Z,9.40
2023-03-30T21:56:29.485Z,11.63
2023-03-30T21:58:57.451Z,9.40
2023-03-30T22:01:24.944Z,10.03
2023-03-30T22:03:53.600Z,9.40
2023-03-30T22:06:21.474Z,11.10
2023-03-30T22:08:48.492Z,10.17
2023-03-30T22:11:17.543Z,12.73
2023-03-30T22:13:46.806Z,13.23
2023-03-30T22:16:42.789Z,12.07
2023-03-30T22:19:09.869Z,16.33
2023-03-30T22:21:37.239Z,14.93
2023-03-30T22:24:06.281Z,14.47
2023-03-30T22:26:34.337Z,17.03
2023-03-30T22:29:01.481Z,18.03
2023-03-30T22:31:28.352Z,17.40
2023-03-30T22:33:56.290Z,22.10
2023-03-30T22:36:25.516Z,22.23
2023-03-30T22:38:52.549Z,22.07
2023-03-30T22:41:23.854Z,24.30
2023-03-30T22:43:56.097Z,29.47
2023-03-30T22:46:24.929Z,29.63
2023-03-30T22:48:52.521Z,24.60
2023-03-30T22:51:25.967Z,25.60
2023-03-30T22:53:57.738Z,26.53
2023-03-30T22:56:24.867Z,29.03
2023-03-30T22:58:51.853Z,23.03
2023-03-30T23:01:19.460Z,26.43
2023-03-30T23:03:47.633Z,24.20
2023-03-30T23:06:14.643Z,25.80
2023-03-30T23:08:42.559Z,23.73
2023-03-30T23:11:09.413Z,22.58
2023-03-30T23:13:37.619Z,22.97
2023-03-30T23:16:06.626Z,29.10
2023-03-30T23:18:34.742Z,22.63
2023-03-30T23:21:06.095Z,25.67
2023-03-30T23:23:37.325Z,23.57
2023-03-30T23:26:09.736Z,28.07
2023-03-30T23:28:40.069Z,25.50
2023-03-30T23:31:09.824Z,25.40
2023-03-30T23:33:36.945Z,22.73
2023-03-30T23:36:06.217Z,23.43
2023-03-30T23:38:33.382Z,23.50
2023-03-30T23:41:00.287Z,23.53
2023-03-30T23:43:27.706Z,22.03
2023-03-30T23:45:54.451Z,23.37
2023-03-30T23:48:21.457Z,22.10
2023-03-30T23:50:48.349Z,25.77
2023-03-30T23:53:16.141Z,28.30
2023-03-30T23:55:42.889Z,22.53
2023-03-30T23:58:09.870Z,22.93
